createdAt,value
2017-11-16T00:00:32.293Z,2.6
2017-11-16T00:01:50.988Z,2.5
2017-11-16T00:03:09.672Z,2.4
2017-11-16T00:04:28.337Z,2.4
2017-11-16T00:05:47.020Z,2.4
2017-11-16T00:07:05.698Z,2.4
2017-11-16T00:08:24.366Z,2.4
2017-11-16T00:09:43.081Z,2.4
2017-11-16T00:11:01.729Z,2.4
2017-11-16T00:12:20.368Z,2.3
2017-11-16T00:13:39.030Z,2.2
2017-11-16T00:14:57.673Z,2.2
2017-11-16T00:16:16.356Z,2.1
2017-11-16T00:17:34.999Z,2
2017-11-16T00:18:53.709Z,1.9
2017-11-16T00:20:12.432Z,1.8
2017-11-16T00:21:31.097Z,1.8
2017-11-16T00:22:49.768Z,1.8
2017-11-16T00:24:08.460Z,1.8
2017-11-16T00:25:27.108Z,1.8
2017-11-16T00:26:45.749Z,1.8
2017-11-16T00:28:04.423Z,1.8
2017-11-16T00:29:23.070Z,1.9
2017-11-16T00:30:41.708Z,2
2017-11-16T00:32:00.358Z,2.1
2017-11-16T00:33:19.003Z,2.3
2017-11-16T00:34:37.678Z,2.4
2017-11-16T00:35:56.333Z,2.5
2017-11-16T00:37:15.015Z,2.5
2017-11-16T00:38:33.667Z,2.6
2017-11-16T00:39:52.378Z,2.7
2017-11-16T00:41:11.034Z,2.7
2017-11-16T00:42:29.722Z,2.8
2017-11-16T00:43:48.369Z,2.9
2017-11-16T00:45:07.045Z,3
2017-11-16T00:46:25.696Z,3
2017-11-16T00:47:44.352Z,3
2017-11-16T00:49:02.989Z,3.1
2017-11-16T00:50:21.642Z,3.1
2017-11-16T00:51:40.291Z,3.1
2017-11-16T00:52:58.932Z,3.1
2017-11-16T00:54:17.575Z,3
2017-11-16T00:55:36.275Z,3
2017-11-16T00:56:54.945Z,3
2017-11-16T00:58:13.630Z,3
2017-11-16T00:59:32.301Z,3
2017-11-16T01:00:50.954Z,3
2017-11-16T01:02:09.615Z,2.9
2017-11-16T01:03:28.266Z,2.8
2017-11-16T01:04:46.906Z,2.8
2017-11-16T01:06:05.574Z,2.8
2017-11-16T01:07:24.238Z,2.8
2017-11-16T01:08:42.881Z,2.9
2017-11-16T01:10:01.527Z,2.9
2017-11-16T01:11:20.222Z,3
2017-11-16T01:12:38.888Z,3
2017-11-16T01:13:57.526Z,3.1
2017-11-16T01:15:16.170Z,3.2
2017-11-16T01:16:34.826Z,3.3
2017-11-16T01:17:53.476Z,3.3
2017-11-16T01:19:12.117Z,3.3
2017-11-16T01:20:30.761Z,3.3
2017-11-16T01:21:49.465Z,3.3
2017-11-16T01:23:08.120Z,3.3
2017-11-16T01:24:26.768Z,3.4
2017-11-16T01:25:45.459Z,3.4
2017-11-16T01:27:04.107Z,3.4
2017-11-16T01:28:22.775Z,3.3
2017-11-16T01:29:41.453Z,3.2
2017-11-16T01:31:00.094Z,3.2
2017-11-16T01:32:18.765Z,3.1
2017-11-16T01:33:37.453Z,3
2017-11-16T01:34:56.098Z,2.8
2017-11-16T01:36:14.745Z,2.8
2017-11-16T01:37:33.398Z,2.9
2017-11-16T01:38:52.062Z,2.8
2017-11-16T01:40:10.703Z,2.8
2017-11-16T01:41:29.410Z,2.8
2017-11-16T01:42:48.060Z,2.8
2017-11-16T01:44:06.756Z,2.9
2017-11-16T01:45:25.469Z,2.9
2017-11-16T01:46:44.152Z,3
2017-11-16T01:48:02.822Z,3
2017-11-16T01:49:21.486Z,3
2017-11-16T01:50:40.130Z,3.1
2017-11-16T01:51:58.778Z,3.1
2017-11-16T01:53:17.448Z,3.2
2017-11-16T01:54:36.093Z,3.2
2017-11-16T01:55:54.735Z,3.3
2017-11-16T01:57:13.381Z,3.4
2017-11-16T01:58:32.100Z,3.4
2017-11-16T01:59:50.747Z,3.5
2017-11-16T02:01:09.436Z,3.5
2017-11-16T02:02:28.083Z,3.6
2017-11-16T02:03:46.735Z,3.6
2017-11-16T02:05:05.385Z,3.6
2017-11-16T02:06:24.043Z,3.6
2017-11-16T02:07:42.732Z,3.6
2017-11-16T02:09:01.385Z,3.7
2017-11-16T02:10:20.058Z,3.7
2017-11-16T02:11:38.699Z,3.7
2017-11-16T02:12:57.375Z,3.7
2017-11-16T02:14:16.025Z,3.7
2017-11-16T02:15:34.723Z,3.8
2017-11-16T02:16:53.363Z,3.8
2017-11-16T02:18:12.008Z,3.8
2017-11-16T02:19:30.667Z,3.8
2017-11-16T02:20:49.310Z,3.7
2017-11-16T02:22:07.944Z,3.7
2017-11-16T02:23:26.585Z,3.7
2017-11-16T02:24:45.261Z,3.7
2017-11-16T02:26:03.928Z,3.7
2017-11-16T02:27:22.571Z,3.7
2017-11-16T02:28:41.215Z,3.6
2017-11-16T02:29:59.929Z,3.7
2017-11-16T02:31:18.595Z,3.7
2017-11-16T02:32:37.238Z,3.7
2017-11-16T02:33:55.879Z,3.8
2017-11-16T02:35:14.552Z,3.8
2017-11-16T02:36:33.200Z,3.8
2017-11-16T02:37:51.844Z,3.7
2017-11-16T02:39:10.486Z,3.7
2017-11-16T02:40:29.167Z,3.6
2017-11-16T02:41:47.833Z,3.7
2017-11-16T02:43:06.475Z,3.7
2017-11-16T02:44:25.140Z,3.7
2017-11-16T02:45:43.807Z,3.7
2017-11-16T02:47:02.463Z,3.8
2017-11-16T02:48:21.103Z,3.8
2017-11-16T02:49:39.799Z,3.7
2017-11-16T02:50:58.533Z,3.7
2017-11-16T02:52:17.174Z,3.7
2017-11-16T02:53:35.811Z,3.8
2017-11-16T02:54:54.460Z,3.8
2017-11-16T02:56:13.120Z,3.8
2017-11-16T02:57:31.837Z,3.8
2017-11-16T02:58:50.497Z,3.9
2017-11-16T03:00:09.195Z,3.9
2017-11-16T03:01:27.915Z,3.9
2017-11-16T03:02:46.556Z,3.9
2017-11-16T03:04:05.202Z,3.9
2017-11-16T03:05:23.888Z,3.9
2017-11-16T03:06:42.567Z,3.9
2017-11-16T03:08:01.254Z,3.9
2017-11-16T03:09:19.900Z,3.9
2017-11-16T03:10:38.538Z,3.9
2017-11-16T03:11:57.247Z,3.8
2017-11-16T03:13:15.935Z,3.7
2017-11-16T03:14:34.583Z,3.7
2017-11-16T03:15:53.225Z,3.7
2017-11-16T03:17:11.892Z,3.8
2017-11-16T03:18:30.535Z,3.8
2017-11-16T03:19:49.176Z,3.7
2017-11-16T03:21:07.849Z,3.7
2017-11-16T03:22:26.529Z,3.7
2017-11-16T03:23:45.172Z,3.7
2017-11-16T03:25:03.842Z,3.7
2017-11-16T03:26:22.508Z,3.7
2017-11-16T03:27:41.185Z,3.7
2017-11-16T03:28:59.837Z,3.7
2017-11-16T03:30:18.481Z,3.7
2017-11-16T03:31:37.185Z,3.7
2017-11-16T03:32:55.902Z,3.7
2017-11-16T03:34:14.542Z,3.7
2017-11-16T03:35:33.230Z,3.7
2017-11-16T03:36:51.878Z,3.7
2017-11-16T03:38:10.527Z,3.7
2017-11-16T03:39:29.222Z,3.7
2017-11-16T03:40:47.894Z,3.8
2017-11-16T03:42:06.541Z,3.8
2017-11-16T03:43:25.204Z,3.8
2017-11-16T03:44:43.908Z,3.8
2017-11-16T03:46:02.551Z,3.8
2017-11-16T03:47:21.221Z,3.8
2017-11-16T03:48:39.870Z,3.7
2017-11-16T03:49:58.520Z,3.7
2017-11-16T03:51:17.224Z,3.7
2017-11-16T03:52:35.917Z,3.7
2017-11-16T03:53:54.608Z,3.7
2017-11-16T03:55:13.254Z,3.6
2017-11-16T03:56:31.949Z,3.6
2017-11-16T03:57:50.633Z,3.6
2017-11-16T03:59:09.302Z,3.5
2017-11-16T04:00:27.952Z,3.6
2017-11-16T04:01:46.593Z,3.5
2017-11-16T04:03:05.268Z,3.4
2017-11-16T04:04:23.947Z,3.4
2017-11-16T04:05:42.637Z,3.5
2017-11-16T04:07:01.285Z,3.4
2017-11-16T04:08:19.984Z,3.4
2017-11-16T04:09:38.705Z,3.4
2017-11-16T04:10:57.400Z,3.3
2017-11-16T04:12:16.054Z,3.4
2017-11-16T04:13:34.746Z,3.4
2017-11-16T04:14:53.402Z,3.4
2017-11-16T04:16:12.155Z,3.4
2017-11-16T04:17:30.800Z,3.4
2017-11-16T04:18:49.440Z,3.4
2017-11-16T04:20:08.092Z,3.4
2017-11-16T04:21:26.786Z,3.5
2017-11-16T04:22:45.474Z,3.4
2017-11-16T04:24:04.150Z,3.4
2017-11-16T04:25:22.823Z,3.4
2017-11-16T04:26:41.466Z,3.4
2017-11-16T04:28:00.133Z,3.5
2017-11-16T04:29:18.792Z,3.6
2017-11-16T04:30:37.443Z,3.6
2017-11-16T04:31:56.146Z,3.6
2017-11-16T04:33:14.796Z,3.6
2017-11-16T04:34:33.505Z,3.6
2017-11-16T04:35:52.185Z,3.6
2017-11-16T04:37:10.882Z,3.6
2017-11-16T04:38:29.526Z,3.6
2017-11-16T04:39:48.214Z,3.5
2017-11-16T04:41:06.946Z,3.6
2017-11-16T04:42:25.589Z,3.5
2017-11-16T04:43:44.228Z,3.5
2017-11-16T04:45:02.899Z,3.6
2017-11-16T04:46:21.587Z,3.6
2017-11-16T04:47:40.273Z,3.6
2017-11-16T04:48:58.908Z,3.6
2017-11-16T04:50:17.555Z,3.5
2017-11-16T04:51:36.219Z,3.5
2017-11-16T04:52:54.864Z,3.4
2017-11-16T04:54:13.537Z,3.4
2017-11-16T04:55:32.188Z,3.4
2017-11-16T04:56:50.835Z,3.4
2017-11-16T04:58:09.481Z,3.3
2017-11-16T04:59:28.128Z,3.3
2017-11-16T05:00:46.827Z,3.3
2017-11-16T05:02:05.472Z,3.3
2017-11-16T05:03:24.144Z,3.2
2017-11-16T05:04:42.782Z,3.2
2017-11-16T05:06:01.431Z,3.2
2017-11-16T05:07:20.110Z,3.2
2017-11-16T05:08:38.768Z,3.2
2017-11-16T05:09:57.411Z,3.3
2017-11-16T05:11:16.054Z,3.3
2017-11-16T05:12:34.777Z,3.3
2017-11-16T05:13:53.447Z,3.2
2017-11-16T05:15:12.089Z,3.2
2017-11-16T05:16:30.740Z,3.1
2017-11-16T05:17:49.392Z,3.2
2017-11-16T05:19:08.096Z,3.2
2017-11-16T05:20:26.789Z,3.2
2017-11-16T05:21:45.448Z,3.2
2017-11-16T05:23:04.112Z,3.2
2017-11-16T05:24:22.764Z,3.1
2017-11-16T05:25:41.413Z,3.1
2017-11-16T05:27:00.065Z,3.1
2017-11-16T05:28:18.741Z,3.1
2017-11-16T05:29:37.390Z,3.1
2017-11-16T05:30:56.077Z,3.1
2017-11-16T05:32:14.718Z,3.1
2017-11-16T05:33:33.425Z,3.1
2017-11-16T05:34:52.092Z,3.1
2017-11-16T05:36:10.742Z,3.1
2017-11-16T05:37:29.384Z,3.1
2017-11-16T05:38:48.055Z,3.2
2017-11-16T05:40:06.755Z,3.1
2017-11-16T05:41:25.404Z,3.1
2017-11-16T05:42:44.072Z,3.1
2017-11-16T05:44:02.720Z,3.1
2017-11-16T05:45:21.357Z,3.1
2017-11-16T05:46:40.007Z,3.1
2017-11-16T05:47:58.677Z,3.1
2017-11-16T05:49:17.327Z,3.1
2017-11-16T05:50:35.996Z,3.1
2017-11-16T05:51:54.694Z,3.1
2017-11-16T05:53:13.375Z,3.1
2017-11-16T05:54:32.023Z,3.1
2017-11-16T05:55:50.698Z,3.1
2017-11-16T05:57:09.340Z,3.1
2017-11-16T05:58:27.998Z,3.1
2017-11-16T05:59:46.713Z,3.1
2017-11-16T06:01:05.357Z,3.1
2017-11-16T06:02:24.028Z,3.1
2017-11-16T06:03:42.668Z,3.1
2017-11-16T06:05:01.334Z,3.1
2017-11-16T06:06:19.987Z,3.1
2017-11-16T06:07:38.634Z,3
2017-11-16T06:08:57.306Z,3.1
2017-11-16T06:10:15.967Z,3.1
2017-11-16T06:11:34.613Z,3.1
2017-11-16T06:12:53.288Z,3
2017-11-16T06:14:11.950Z,2.9
2017-11-16T06:15:30.646Z,2.8
2017-11-16T06:16:49.347Z,2.9
2017-11-16T06:18:08.068Z,2.9
2017-11-16T06:19:26.748Z,2.9
2017-11-16T06:20:45.477Z,3
2017-11-16T06:22:04.150Z,3
2017-11-16T06:23:22.838Z,3
2017-11-16T06:24:41.516Z,2.9
2017-11-16T06:26:00.197Z,2.8
2017-11-16T06:27:18.833Z,2.8
2017-11-16T06:28:37.523Z,2.7
2017-11-16T06:29:56.164Z,2.6
2017-11-16T06:31:14.824Z,2.6
2017-11-16T06:32:33.467Z,2.6
2017-11-16T06:33:52.132Z,2.7
2017-11-16T06:35:10.778Z,2.7
2017-11-16T06:36:29.460Z,2.7
2017-11-16T06:37:48.186Z,2.7
2017-11-16T06:39:06.827Z,2.6
2017-11-16T06:40:25.506Z,2.7
2017-11-16T06:41:44.202Z,2.8
2017-11-16T06:43:02.861Z,2.8
2017-11-16T06:44:21.529Z,2.7
2017-11-16T06:45:40.180Z,2.7
2017-11-16T06:46:58.831Z,2.6
2017-11-16T06:48:17.526Z,2.5
2017-11-16T06:49:36.171Z,2.5
2017-11-16T06:50:54.814Z,2.7
2017-11-16T06:52:13.475Z,2.7
2017-11-16T06:53:32.144Z,2.7
2017-11-16T06:54:50.793Z,2.8
2017-11-16T06:56:09.439Z,2.9
2017-11-16T06:57:28.137Z,2.9
2017-11-16T06:58:46.834Z,2.9
2017-11-16T07:00:05.488Z,3
2017-11-16T07:01:24.142Z,3
2017-11-16T07:02:42.865Z,2.9
2017-11-16T07:04:01.532Z,2.9
2017-11-16T07:05:20.173Z,2.9
2017-11-16T07:06:38.816Z,2.9
2017-11-16T07:07:57.468Z,3
2017-11-16T07:09:16.161Z,3
2017-11-16T07:10:34.808Z,3.1
2017-11-16T07:11:53.463Z,3.1
2017-11-16T07:13:12.144Z,3.1
2017-11-16T07:14:30.796Z,3.2
2017-11-16T07:15:49.439Z,3.2
2017-11-16T07:17:08.133Z,3.3
2017-11-16T07:18:26.805Z,3.3
2017-11-16T07:19:45.459Z,3.2
2017-11-16T07:21:04.101Z,3.2
2017-11-16T07:22:22.771Z,3.2
2017-11-16T07:23:41.434Z,3.2
2017-11-16T07:25:00.113Z,3.3
2017-11-16T07:26:18.750Z,3.4
2017-11-16T07:27:37.392Z,3.4
2017-11-16T07:28:56.074Z,3.4
2017-11-16T07:30:14.746Z,3.4
2017-11-16T07:31:33.433Z,3.3
2017-11-16T07:32:52.079Z,3.3
2017-11-16T07:34:10.759Z,3.3
2017-11-16T07:35:29.402Z,3.3
2017-11-16T07:36:48.084Z,3.2
2017-11-16T07:38:06.732Z,3.2
2017-11-16T07:39:25.386Z,3.3
2017-11-16T07:40:44.066Z,3.3
2017-11-16T07:42:02.739Z,3.3
2017-11-16T07:43:21.427Z,3.4
2017-11-16T07:44:40.105Z,3.5
2017-11-16T07:45:58.757Z,3.6
2017-11-16T07:47:17.403Z,3.6
2017-11-16T07:48:36.102Z,3.5
2017-11-16T07:49:54.801Z,3.6
2017-11-16T07:51:13.445Z,3.5
2017-11-16T07:52:32.105Z,3.6
2017-11-16T07:53:50.802Z,3.5
2017-11-16T07:55:09.498Z,3.5
2017-11-16T07:56:28.164Z,3.5
2017-11-16T07:57:46.813Z,3.6
2017-11-16T07:59:05.469Z,3.7
2017-11-16T08:00:24.150Z,3.7
2017-11-16T08:01:42.831Z,3.8
2017-11-16T08:03:01.510Z,3.9
2017-11-16T08:04:20.147Z,3.8
2017-11-16T08:05:38.818Z,3.8
2017-11-16T08:06:57.471Z,3.8
2017-11-16T08:08:16.127Z,3.8
2017-11-16T08:09:34.772Z,3.7
2017-11-16T08:10:53.477Z,3.7
2017-11-16T08:12:12.151Z,3.6
2017-11-16T08:13:30.794Z,3.6
2017-11-16T08:14:49.440Z,3.5
2017-11-16T08:16:08.115Z,3.6
2017-11-16T08:17:26.755Z,3.6
2017-11-16T08:18:45.394Z,3.7
2017-11-16T08:20:04.060Z,3.8
2017-11-16T08:21:22.783Z,3.8
2017-11-16T08:22:41.443Z,3.9
2017-11-16T08:24:00.088Z,3.9
2017-11-16T08:25:18.754Z,3.9
2017-11-16T08:26:37.442Z,4
2017-11-16T08:27:56.108Z,4
2017-11-16T08:29:14.800Z,4.1
2017-11-16T08:30:33.450Z,4
2017-11-16T08:31:52.098Z,4
2017-11-16T08:33:10.741Z,4.1
2017-11-16T08:34:29.390Z,4.3
2017-11-16T08:35:48.038Z,4.4
2017-11-16T08:37:06.706Z,4.5
2017-11-16T08:38:25.375Z,4.7
2017-11-16T08:39:44.063Z,4.9
2017-11-16T08:41:02.725Z,5
2017-11-16T08:42:21.395Z,5.1
2017-11-16T08:43:40.042Z,5.2
2017-11-16T08:44:58.710Z,5.1
2017-11-16T08:46:17.361Z,5.2
2017-11-16T08:47:36.014Z,5.1
2017-11-16T08:48:54.654Z,5.2
2017-11-16T08:50:13.306Z,5.2
2017-11-16T08:51:32.004Z,5.2
2017-11-16T08:52:50.680Z,5.2
2017-11-16T08:54:09.375Z,5
2017-11-16T08:55:28.072Z,5.1
2017-11-16T08:56:46.780Z,5.2
2017-11-16T08:58:05.434Z,5.3
2017-11-16T08:59:24.103Z,5.3
2017-11-16T09:00:42.771Z,5.2
2017-11-16T09:02:01.413Z,5.3
2017-11-16T09:03:20.076Z,5.3
2017-11-16T09:04:38.776Z,5.4
2017-11-16T09:05:57.438Z,5.5
2017-11-16T09:07:16.135Z,5.7
2017-11-16T09:08:34.809Z,5.5
2017-11-16T09:09:53.448Z,5.6
2017-11-16T09:11:12.090Z,5.5
2017-11-16T09:12:30.815Z,5.7
2017-11-16T09:13:49.497Z,5.8
2017-11-16T09:15:08.215Z,5.8
2017-11-16T09:16:26.859Z,5.9
2017-11-16T09:17:45.505Z,5.9
2017-11-16T09:19:04.209Z,6.1
2017-11-16T09:20:22.868Z,6.2
2017-11-16T09:21:41.505Z,6.4
2017-11-16T09:23:00.183Z,6.3
2017-11-16T09:24:18.868Z,6.3
2017-11-16T09:25:37.538Z,6.5
2017-11-16T09:26:56.188Z,6.5
2017-11-16T09:28:14.829Z,6.6
2017-11-16T09:29:33.499Z,6.5
2017-11-16T09:30:52.211Z,6.7
2017-11-16T09:32:10.895Z,6.6
2017-11-16T09:33:29.556Z,6.6
2017-11-16T09:34:48.214Z,6.6
2017-11-16T09:36:06.859Z,6.5
2017-11-16T09:37:25.513Z,6.3
2017-11-16T09:38:44.164Z,6.4
2017-11-16T09:40:02.807Z,6.4
2017-11-16T09:41:21.466Z,6.4
2017-11-16T09:42:40.153Z,6.4
2017-11-16T09:43:58.801Z,6.5
2017-11-16T09:45:17.480Z,6.5
2017-11-16T09:46:36.146Z,6.5
2017-11-16T09:47:54.786Z,6.4
2017-11-16T09:49:13.433Z,6.4
2017-11-16T09:50:32.159Z,6.5
2017-11-16T09:51:50.798Z,6.5
2017-11-16T09:53:09.445Z,6.5
2017-11-16T09:54:28.097Z,6.4
2017-11-16T09:55:46.781Z,6.6
2017-11-16T09:57:05.432Z,6.5
2017-11-16T09:58:24.098Z,6.4
2017-11-16T09:59:42.744Z,6.5
2017-11-16T10:01:01.417Z,6.7
2017-11-16T10:02:20.068Z,6.6
2017-11-16T10:03:38.713Z,6.5
2017-11-16T10:04:57.403Z,6.5
2017-11-16T10:06:16.057Z,6.5
2017-11-16T10:07:34.694Z,6.7
2017-11-16T10:08:53.383Z,6.6
2017-11-16T10:10:12.058Z,6.7
2017-11-16T10:11:30.757Z,6.6
2017-11-16T10:12:49.406Z,6.6
2017-11-16T10:14:08.051Z,6.3
2017-11-16T10:15:26.703Z,6.5
2017-11-16T10:16:45.353Z,6.5
2017-11-16T10:18:04.018Z,6.7
2017-11-16T10:19:22.667Z,6.7
2017-11-16T10:20:41.364Z,6.9
2017-11-16T10:22:00.043Z,7
2017-11-16T10:23:18.693Z,7.2
2017-11-16T10:24:37.370Z,7.2
2017-11-16T10:25:56.014Z,7.1
2017-11-16T10:27:14.716Z,6.9
2017-11-16T10:28:33.373Z,7
2017-11-16T10:29:52.049Z,7
2017-11-16T10:31:10.737Z,7
2017-11-16T10:32:29.451Z,7.2
2017-11-16T10:33:48.149Z,7.2
2017-11-16T10:35:06.790Z,7.4
2017-11-16T10:36:25.470Z,7.6
2017-11-16T10:37:44.127Z,7.8
2017-11-16T10:39:02.776Z,7.6
2017-11-16T10:40:21.448Z,7.5
2017-11-16T10:41:40.098Z,7.4
2017-11-16T10:42:58.786Z,7.5
2017-11-16T10:44:17.431Z,7.6
2017-11-16T10:45:36.081Z,7.7
2017-11-16T10:46:54.729Z,7.6
2017-11-16T10:48:13.408Z,7.8
2017-11-16T10:49:32.093Z,7.8
2017-11-16T10:50:50.764Z,7.9
2017-11-16T10:52:09.426Z,7.7
2017-11-16T10:53:28.085Z,7.6
2017-11-16T10:54:46.789Z,7.5
2017-11-16T10:56:05.459Z,7.6
2017-11-16T10:57:24.142Z,7.5
2017-11-16T10:58:42.803Z,7.5
2017-11-16T11:00:01.450Z,7.6
2017-11-16T11:01:20.095Z,7.8
2017-11-16T11:02:38.734Z,8
2017-11-16T11:03:57.404Z,8.3
2017-11-16T11:05:16.097Z,8.3
2017-11-16T11:06:34.739Z,8.4
2017-11-16T11:07:53.389Z,8.4
2017-11-16T11:09:12.077Z,8.5
2017-11-16T11:10:30.727Z,8.5
2017-11-16T11:11:49.421Z,8.5
2017-11-16T11:13:08.070Z,8.5
2017-11-16T11:14:26.737Z,8.6
2017-11-16T11:15:45.386Z,8.6
2017-11-16T11:17:04.026Z,8.5
2017-11-16T11:18:22.667Z,8.6
2017-11-16T11:19:41.365Z,8.8
2017-11-16T11:21:00.064Z,8.9
2017-11-16T11:22:18.707Z,8.4
2017-11-16T11:23:37.401Z,8.4
2017-11-16T11:24:56.095Z,8.6
2017-11-16T11:26:14.795Z,8.8
2017-11-16T11:27:33.447Z,8.9
2017-11-16T11:28:52.102Z,9
2017-11-16T11:30:10.780Z,9
2017-11-16T11:31:29.462Z,9.1
2017-11-16T11:32:48.111Z,9.2
2017-11-16T11:34:06.790Z,9.5
2017-11-16T11:35:25.452Z,9.5
2017-11-16T11:36:44.156Z,9.5
2017-11-16T11:38:02.807Z,9.2
2017-11-16T11:39:21.444Z,9.1
2017-11-16T11:40:40.159Z,8.9
2017-11-16T11:41:58.853Z,8.8
2017-11-16T11:43:17.508Z,8.8
2017-11-16T11:44:36.162Z,8.7
2017-11-16T11:45:54.859Z,8.7
2017-11-16T11:47:13.557Z,8.7
2017-11-16T11:48:32.194Z,8.7
2017-11-16T11:49:50.839Z,8.7
2017-11-16T11:51:09.498Z,8.7
2017-11-16T11:52:28.157Z,8.7
2017-11-16T11:53:46.833Z,8.7
2017-11-16T11:55:05.481Z,8.7
2017-11-16T11:56:24.193Z,8.7
2017-11-16T11:57:42.846Z,8.8
2017-11-16T11:59:01.555Z,8.7
2017-11-16T12:00:20.197Z,8.5
2017-11-16T12:01:38.881Z,8.5
2017-11-16T12:02:57.522Z,8.6
2017-11-16T12:04:16.190Z,8.6
2017-11-16T12:05:34.897Z,8.5
2017-11-16T12:06:53.591Z,8.4
2017-11-16T12:08:12.278Z,8.3
2017-11-16T12:09:30.926Z,8.4
2017-11-16T12:10:49.579Z,8.5
2017-11-16T12:12:08.267Z,8.4
2017-11-16T12:13:26.915Z,8.4
2017-11-16T12:14:45.560Z,8.4
2017-11-16T12:16:04.204Z,8.6
2017-11-16T12:17:22.916Z,8.6
2017-11-16T12:18:41.588Z,8.5
2017-11-16T12:20:00.233Z,8.5
2017-11-16T12:21:18.875Z,8.4
2017-11-16T12:22:37.527Z,8.4
2017-11-16T12:23:56.247Z,8.4
2017-11-16T12:25:14.955Z,8.4
2017-11-16T12:26:33.603Z,8.3
2017-11-16T12:27:52.248Z,8.1
2017-11-16T12:29:10.894Z,8.2
2017-11-16T12:30:29.570Z,8.1
2017-11-16T12:31:48.216Z,7.9
2017-11-16T12:33:06.897Z,8.1
2017-11-16T12:34:25.581Z,8.2
2017-11-16T12:35:44.238Z,8.3
2017-11-16T12:37:02.923Z,8.2
2017-11-16T12:38:21.625Z,8.1
2017-11-16T12:39:40.277Z,8.1
2017-11-16T12:40:58.927Z,8.1
2017-11-16T12:42:17.569Z,8
2017-11-16T12:43:36.284Z,8
2017-11-16T12:44:54.952Z,8
2017-11-16T12:46:13.599Z,7.9
2017-11-16T12:47:32.283Z,7.9
2017-11-16T12:48:50.930Z,7.9
2017-11-16T12:50:09.598Z,7.8
2017-11-16T12:51:28.237Z,7.9
2017-11-16T12:52:46.884Z,7.9
2017-11-16T12:54:05.606Z,7.8
2017-11-16T12:55:24.274Z,7.6
2017-11-16T12:56:42.941Z,7.5
2017-11-16T12:58:01.607Z,7.6
2017-11-16T12:59:20.262Z,7.6
2017-11-16T13:00:38.907Z,7.6
2017-11-16T13:01:57.547Z,7.8
2017-11-16T13:03:16.221Z,7.6
2017-11-16T13:04:34.895Z,7.8
2017-11-16T13:05:53.542Z,7.8
2017-11-16T13:07:12.242Z,7.9
2017-11-16T13:08:30.885Z,7.6
2017-11-16T13:09:49.552Z,7.4
2017-11-16T13:11:08.218Z,7.4
2017-11-16T13:12:26.856Z,7.4
2017-11-16T13:13:45.530Z,7.4
2017-11-16T13:15:04.211Z,7.1
2017-11-16T13:16:22.860Z,7.1
2017-11-16T13:17:41.523Z,7.1
2017-11-16T13:19:00.193Z,7.2
2017-11-16T13:20:18.900Z,7.4
2017-11-16T13:21:37.574Z,7.4
2017-11-16T13:22:56.251Z,7.3
2017-11-16T13:24:14.893Z,7.2
2017-11-16T13:25:33.549Z,7.2
2017-11-16T13:26:52.227Z,7.1
2017-11-16T13:28:10.878Z,7.1
2017-11-16T13:29:29.524Z,7.2
2017-11-16T13:30:48.176Z,7.5
2017-11-16T13:32:06.812Z,7.7
2017-11-16T13:33:25.473Z,7.7
2017-11-16T13:34:44.113Z,7.9
2017-11-16T13:36:02.766Z,7.8
2017-11-16T13:37:21.439Z,7.8
2017-11-16T13:38:40.076Z,7.9
2017-11-16T13:39:58.715Z,7.8
2017-11-16T13:41:17.376Z,7.9
2017-11-16T13:42:36.024Z,7.6
2017-11-16T13:43:54.692Z,7.6
2017-11-16T13:45:13.339Z,7.6
2017-11-16T13:46:32.071Z,7.5
2017-11-16T13:47:50.717Z,7.5
2017-11-16T13:49:09.363Z,7.4
2017-11-16T13:50:28.006Z,7.3
2017-11-16T13:51:46.687Z,7.4
2017-11-16T13:53:05.329Z,7.4
2017-11-16T13:54:24.021Z,7.5
2017-11-16T13:55:42.668Z,7.5
2017-11-16T13:57:01.352Z,7.6
2017-11-16T13:58:20.007Z,7.6
2017-11-16T13:59:38.666Z,7.6
2017-11-16T14:00:57.360Z,7.5
2017-11-16T14:02:16.067Z,7.4
2017-11-16T14:03:34.741Z,7.4
2017-11-16T14:04:53.384Z,7.5
2017-11-16T14:06:12.047Z,7.5
2017-11-16T14:07:30.719Z,7.5
2017-11-16T14:08:49.379Z,7.7
2017-11-16T14:10:08.074Z,7.8
2017-11-16T14:11:26.719Z,7.7
2017-11-16T14:12:45.373Z,7.6
2017-11-16T14:14:04.025Z,7.5
2017-11-16T14:15:22.674Z,7.5
2017-11-16T14:16:41.340Z,7.5
2017-11-16T14:18:00.018Z,7.5
2017-11-16T14:19:18.688Z,7.6
2017-11-16T14:20:37.361Z,7.6
2017-11-16T14:21:56.028Z,7.5
2017-11-16T14:23:14.703Z,7.3
2017-11-16T14:24:33.349Z,7.1
2017-11-16T14:25:51.997Z,6.9
2017-11-16T14:27:10.688Z,6.7
2017-11-16T14:28:29.353Z,6.5
2017-11-16T14:29:48.028Z,6.3
2017-11-16T14:31:06.670Z,6.1
2017-11-16T14:32:25.315Z,6
2017-11-16T14:33:43.973Z,5.8
2017-11-16T14:35:02.677Z,5.6
2017-11-16T14:36:21.371Z,5.4
2017-11-16T14:37:40.025Z,5.3
2017-11-16T14:38:58.701Z,5.2
2017-11-16T14:40:17.375Z,5.1
2017-11-16T14:41:36.063Z,5
2017-11-16T14:42:54.710Z,5
2017-11-16T14:44:13.366Z,4.9
2017-11-16T14:45:32.011Z,4.7
2017-11-16T14:46:50.697Z,4.7
2017-11-16T14:48:09.412Z,4.6
2017-11-16T14:49:28.118Z,4.5
2017-11-16T14:50:46.822Z,4.4
2017-11-16T14:52:05.470Z,4.4
2017-11-16T14:53:24.113Z,4.4
2017-11-16T14:54:42.797Z,4.4
2017-11-16T14:56:01.451Z,4.4
2017-11-16T14:57:20.113Z,4.3
2017-11-16T14:58:38.763Z,4.2
2017-11-16T14:59:57.436Z,4.2
2017-11-16T15:01:16.119Z,4.2
2017-11-16T15:02:34.770Z,4.1
2017-11-16T15:03:53.441Z,4
2017-11-16T15:05:12.087Z,4
2017-11-16T15:06:30.772Z,3.9
2017-11-16T15:07:49.412Z,3.9
2017-11-16T15:09:08.061Z,3.9
2017-11-16T15:10:26.772Z,3.9
2017-11-16T15:11:45.424Z,3.8
2017-11-16T15:13:04.113Z,3.8
2017-11-16T15:14:22.761Z,3.7
2017-11-16T15:15:41.439Z,3.6
2017-11-16T15:17:00.102Z,3.6
2017-11-16T15:18:18.745Z,3.6
2017-11-16T15:19:37.416Z,3.5
2017-11-16T15:20:56.129Z,3.5
2017-11-16T15:22:14.827Z,3.4
2017-11-16T15:23:33.474Z,3.3
2017-11-16T15:24:52.129Z,3.3
2017-11-16T15:26:10.837Z,3.2
2017-11-16T15:27:29.475Z,3.2
2017-11-16T15:28:48.160Z,3.2
2017-11-16T15:30:06.846Z,3.1
2017-11-16T15:31:25.536Z,3.1
2017-11-16T15:32:44.271Z,3.1
2017-11-16T15:34:02.911Z,3.1
2017-11-16T15:35:21.562Z,3
2017-11-16T15:36:40.209Z,2.9
2017-11-16T15:37:58.851Z,2.8
2017-11-16T15:39:17.499Z,2.7
2017-11-16T15:40:36.172Z,2.7
2017-11-16T15:41:54.844Z,2.7
2017-11-16T15:43:13.484Z,2.6
2017-11-16T15:44:32.137Z,2.6
2017-11-16T15:45:50.814Z,2.5
2017-11-16T15:47:09.462Z,2.5
2017-11-16T15:48:28.131Z,2.5
2017-11-16T15:49:46.778Z,2.5
2017-11-16T15:51:05.427Z,2.5
2017-11-16T15:52:24.158Z,2.6
2017-11-16T15:53:42.798Z,2.6
2017-11-16T15:55:01.432Z,2.6
2017-11-16T15:56:20.084Z,2.6
2017-11-16T15:57:38.729Z,2.5
2017-11-16T15:58:57.369Z,2.6
2017-11-16T16:00:16.053Z,2.7
2017-11-16T16:01:34.698Z,2.9
2017-11-16T16:02:53.368Z,3.1
2017-11-16T16:04:12.041Z,3.3
2017-11-16T16:05:30.711Z,3.5
2017-11-16T16:06:49.369Z,3.6
2017-11-16T16:08:08.066Z,3.6
2017-11-16T16:09:26.716Z,3.7
2017-11-16T16:10:45.356Z,3.7
2017-11-16T16:12:04.072Z,3.6
2017-11-16T16:13:22.744Z,3.7
2017-11-16T16:14:41.399Z,3.8
2017-11-16T16:16:00.040Z,3.8
2017-11-16T16:17:18.685Z,3.9
2017-11-16T16:18:37.332Z,3.9
2017-11-16T16:19:56.033Z,3.9
2017-11-16T16:21:14.684Z,4
2017-11-16T16:22:33.330Z,4
2017-11-16T16:23:51.982Z,3.9
2017-11-16T16:25:10.661Z,3.9
2017-11-16T16:26:29.306Z,3.8
2017-11-16T16:27:47.955Z,3.7
2017-11-16T16:29:06.607Z,3.5
2017-11-16T16:30:25.249Z,3.3
2017-11-16T16:31:43.961Z,3.1
2017-11-16T16:33:02.635Z,2.9
2017-11-16T16:34:21.335Z,2.7
2017-11-16T16:35:39.978Z,2.6
2017-11-16T16:36:58.628Z,2.7
2017-11-16T16:38:17.267Z,2.7
2017-11-16T16:39:35.952Z,2.7
2017-11-16T16:40:54.602Z,2.7
2017-11-16T16:42:13.278Z,2.6
2017-11-16T16:43:31.919Z,2.5
2017-11-16T16:44:50.619Z,2.4
2017-11-16T16:46:09.310Z,2.3
2017-11-16T16:47:27.969Z,2.2
2017-11-16T16:48:46.634Z,2.2
2017-11-16T16:50:05.302Z,2.2
2017-11-16T16:51:24.022Z,2.1
2017-11-16T16:52:42.667Z,2
2017-11-16T16:54:01.322Z,1.9
2017-11-16T16:55:19.974Z,1.9
2017-11-16T16:56:38.675Z,1.8
2017-11-16T16:57:57.367Z,1.8
2017-11-16T16:59:16.011Z,1.8
2017-11-16T17:00:34.659Z,1.8
2017-11-16T17:01:53.309Z,1.7
2017-11-16T17:03:11.971Z,1.7
2017-11-16T17:04:30.624Z,1.7
2017-11-16T17:05:49.299Z,1.6
2017-11-16T17:07:07.951Z,1.6
2017-11-16T17:08:26.599Z,1.5
2017-11-16T17:09:45.293Z,1.5
2017-11-16T17:11:03.942Z,1.5
2017-11-16T17:12:22.624Z,1.4
2017-11-16T17:13:41.262Z,1.4
2017-11-16T17:14:59.909Z,1.3
2017-11-16T17:16:18.634Z,1.3
2017-11-16T17:17:37.282Z,1.3
2017-11-16T17:18:55.924Z,1.3
2017-11-16T17:20:14.621Z,1.2
2017-11-16T17:21:33.311Z,1.2
2017-11-16T17:22:51.967Z,1.2
2017-11-16T17:24:10.614Z,1.1
2017-11-16T17:25:29.283Z,1.1
2017-11-16T17:26:47.953Z,1.1
2017-11-16T17:28:06.673Z,1.1
2017-11-16T17:29:25.344Z,1.1
2017-11-16T17:30:43.994Z,1.1
2017-11-16T17:32:02.674Z,1
2017-11-16T17:33:21.373Z,1.1
2017-11-16T17:34:40.033Z,1.1
2017-11-16T17:35:58.721Z,1
2017-11-16T17:37:17.363Z,0.9
2017-11-16T17:38:36.022Z,0.8
2017-11-16T17:39:54.661Z,0.8
2017-11-16T17:41:13.305Z,0.7
2017-11-16T17:42:31.970Z,0.7
2017-11-16T17:43:50.682Z,0.7
2017-11-16T17:45:09.327Z,0.7
2017-11-16T17:46:27.974Z,0.7
2017-11-16T17:47:46.655Z,0.7
2017-11-16T17:49:05.354Z,0.7
2017-11-16T17:50:24.050Z,0.6
2017-11-16T17:51:42.695Z,0.6
2017-11-16T17:53:01.351Z,0.5
2017-11-16T17:54:20.035Z,0.5
2017-11-16T17:55:38.683Z,0.6
2017-11-16T17:56:57.333Z,0.6
2017-11-16T17:58:15.984Z,0.6
2017-11-16T17:59:34.689Z,0.5
2017-11-16T18:00:53.336Z,0.5
2017-11-16T18:02:12.020Z,0.5
2017-11-16T18:03:30.720Z,0.5
2017-11-16T18:04:49.369Z,0.5
2017-11-16T18:06:08.041Z,0.5
2017-11-16T18:07:26.680Z,0.4